sensor_id;sensor_type;location;lat;lon;timestamp;pressure;altitude;pressure_sealevel;temperature;humidity
64158;BME280;50449;51.528;5.076;2022-11-11T00:01:12;102751.06;;;12.72;64.40
64158;BME280;50449;51.528;5.076;2022-11-11T00:03:38;102752.94;;;12.72;64.62
64158;BME280;50449;51.528;5.076;2022-11-11T00:06:07;102750.47;;;12.70;64.50
64158;BME280;50449;51.528;5.076;2022-11-11T00:08:34;102749.59;;;12.70;64.50
64158;BME280;50449;51.528;5.076;2022-11-11T00:11:01;102753.38;;;12.69;64.44
64158;BME280;50449;51.528;5.076;2022-11-11T00:13:27;102747.13;;;12.68;64.56
64158;BME280;50449;51.528;5.076;2022-11-11T00:15:52;102743.34;;;12.69;64.43
64158;BME280;50449;51.528;5.076;2022-11-11T00:18:17;102746.28;;;12.68;64.44
64158;BME280;50449;51.528;5.076;2022-11-11T00:21:12;102743.56;;;12.68;64.46
64158;BME280;50449;51.528;5.076;2022-11-11T00:27:07;102738.53;;;12.65;64.45
64158;BME280;50449;51.528;5.076;2022-11-11T00:29:32;102743.13;;;12.64;64.77
64158;BME280;50449;51.528;5.076;2022-11-11T00:31:58;102746.69;;;12.65;64.37
64158;BME280;50449;51.528;5.076;2022-11-11T00:34:42;102754.81;;;12.65;64.67
64158;BME280;50449;51.528;5.076;2022-11-11T00:37:27;102759.41;;;12.64;64.55
64158;BME280;50449;51.528;5.076;2022-11-11T00:39:52;102770.47;;;12.63;64.96
64158;BME280;50449;51.528;5.076;2022-11-11T00:42:18;102759.63;;;12.63;64.67
64158;BME280;50449;51.528;5.076;2022-11-11T00:44:43;102768.59;;;12.63;64.70
64158;BME280;50449;51.528;5.076;2022-11-11T00:47:09;102765.06;;;12.63;64.52
64158;BME280;50449;51.528;5.076;2022-11-11T00:49:54;102768.78;;;12.62;64.62
64158;BME280;50449;51.528;5.076;2022-11-11T00:52:38;102770.69;;;12.61;64.51
64158;BME280;50449;51.528;5.076;2022-11-11T00:55:04;102764.41;;;12.61;64.61
64158;BME280;50449;51.528;5.076;2022-11-11T00:57:30;102765.25;;;12.61;64.82
64158;BME280;50449;51.528;5.076;2022-11-11T00:59:56;102773.38;;;12.61;64.51
64158;BME280;50449;51.528;5.076;2022-11-11T01:02:21;102776.91;;;12.62;64.83
64158;BME280;50449;51.528;5.076;2022-11-11T01:04:46;102784.22;;;12.61;64.83
64158;BME280;50449;51.528;5.076;2022-11-11T01:07:12;102786.09;;;12.61;64.61
64158;BME280;50449;51.528;5.076;2022-11-11T01:09:37;102784.22;;;12.61;64.76
64158;BME280;50449;51.528;5.076;2022-11-11T01:12:03;102785.06;;;12.62;64.74
64158;BME280;50449;51.528;5.076;2022-11-11T01:14:29;102789.66;;;12.61;64.62
64158;BME280;50449;51.528;5.076;2022-11-11T01:16:54;102794.25;;;12.61;64.65
64158;BME280;50449;51.528;5.076;2022-11-11T01:19:20;102791.53;;;12.61;64.49
64158;BME280;50449;51.528;5.076;2022-11-11T01:21:45;102788.81;;;12.61;65.03
64158;BME280;50449;51.528;5.076;2022-11-11T01:24:10;102786.09;;;12.61;64.92
64158;BME280;50449;51.528;5.076;2022-11-11T01:26:36;102775.25;;;12.61;64.67
64158;BME280;50449;51.528;5.076;2022-11-11T01:29:01;102780.69;;;12.61;64.78
64158;BME280;50449;51.528;5.076;2022-11-11T01:31:27;102776.09;;;12.61;64.72
64158;BME280;50449;51.528;5.076;2022-11-11T01:33:52;102776.09;;;12.61;64.93
64158;BME280;50449;51.528;5.076;2022-11-11T01:36:22;102774.22;;;12.62;64.67
64158;BME280;50449;51.528;5.076;2022-11-11T01:38:49;102770.69;;;12.61;64.60
64158;BME280;50449;51.528;5.076;2022-11-11T01:41:19;102770.69;;;12.61;64.57
64158;BME280;50449;51.528;5.076;2022-11-11T01:46:44;102767.13;;;12.61;64.82
64158;BME280;50449;51.528;5.076;2022-11-11T01:51:50;102759.19;;;12.59;65.07
64158;BME280;50449;51.528;5.076;2022-11-11T01:54:34;102761.72;;;12.61;64.90
64158;BME280;50449;51.528;5.076;2022-11-11T01:59:55;102765.44;;;12.60;64.65
64158;BME280;50449;51.528;5.076;2022-11-11T02:02:45;102769.00;;;12.60;65.02
64158;BME280;50449;51.528;5.076;2022-11-11T02:05:13;102767.31;;;12.59;64.82
64158;BME280;50449;51.528;5.076;2022-11-11T02:08:00;102757.31;;;12.60;64.92
64158;BME280;50449;51.528;5.076;2022-11-11T02:10:27;102753.13;;;12.57;65.01
64158;BME280;50449;51.528;5.076;2022-11-11T02:12:54;102743.16;;;12.58;65.01
64158;BME280;50449;51.528;5.076;2022-11-11T02:15:39;102741.28;;;12.58;64.90
64158;BME280;50449;51.528;5.076;2022-11-11T02:18:05;102738.56;;;12.58;65.01
64158;BME280;50449;51.528;5.076;2022-11-11T02:20:34;102742.09;;;12.59;64.82
64158;BME280;50449;51.528;5.076;2022-11-11T02:23:05;102747.72;;;12.57;64.78
64158;BME280;50449;51.528;5.076;2022-11-11T02:25:32;102754.81;;;12.58;65.03
64158;BME280;50449;51.528;5.076;2022-11-11T02:28:03;102761.06;;;12.59;64.83
64158;BME280;50449;51.528;5.076;2022-11-11T02:30:30;102757.53;;;12.58;64.77
64158;BME280;50449;51.528;5.076;2022-11-11T02:32:55;102758.38;;;12.59;65.04
64158;BME280;50449;51.528;5.076;2022-11-11T02:37:56;102742.09;;;12.59;64.83
64158;BME280;50449;51.528;5.076;2022-11-11T02:40:29;102750.22;;;12.59;64.81
64158;BME280;50449;51.528;5.076;2022-11-11T02:42:57;102742.09;;;12.59;65.05
64158;BME280;50449;51.528;5.076;2022-11-11T02:45:22;102742.94;;;12.59;64.86
64158;BME280;50449;51.528;5.076;2022-11-11T02:47:48;102742.09;;;12.59;65.07
64158;BME280;50449;51.528;5.076;2022-11-11T02:50:13;102735.84;;;12.58;64.96
64158;BME280;50449;51.528;5.076;2022-11-11T02:52:39;102726.88;;;12.58;64.84
64158;BME280;50449;51.528;5.076;2022-11-11T02:55:05;102725.00;;;12.58;65.01
64158;BME280;50449;51.528;5.076;2022-11-11T02:57:30;102718.53;;;12.59;64.92
64158;BME280;50449;51.528;5.076;2022-11-11T02:59:57;102723.13;;;12.59;64.98
64158;BME280;50449;51.528;5.076;2022-11-11T03:02:23;102724.19;;;12.58;64.83
64158;BME280;50449;51.528;5.076;2022-11-11T03:04:52;102723.13;;;12.59;64.74
64158;BME280;50449;51.528;5.076;2022-11-11T03:07:18;102727.50;;;12.60;64.87
64158;BME280;50449;51.528;5.076;2022-11-11T03:09:43;102731.25;;;12.59;65.03
64158;BME280;50449;51.528;5.076;2022-11-11T03:12:09;102732.09;;;12.59;64.82
64158;BME280;50449;51.528;5.076;2022-11-11T03:14:34;102733.13;;;12.58;64.97
64158;BME280;50449;51.528;5.076;2022-11-11T03:16:59;102731.25;;;12.59;64.78
64158;BME280;50449;51.528;5.076;2022-11-11T03:19:43;102728.53;;;12.59;64.81
64158;BME280;50449;51.528;5.076;2022-11-11T03:22:08;102727.72;;;12.58;65.41
64158;BME280;50449;51.528;5.076;2022-11-11T03:24:34;102741.28;;;12.58;64.90
64158;BME280;50449;51.528;5.076;2022-11-11T03:27:18;102733.34;;;12.56;64.90
64158;BME280;50449;51.528;5.076;2022-11-11T03:29:43;102738.75;;;12.56;64.87
64158;BME280;50449;51.528;5.076;2022-11-11T03:32:08;102724.38;;;12.56;64.70
64158;BME280;50449;51.528;5.076;2022-11-11T03:34:34;102731.69;;;12.55;65.13
64158;BME280;50449;51.528;5.076;2022-11-11T03:37:00;102726.25;;;12.55;64.80
64158;BME280;50449;51.528;5.076;2022-11-11T03:39:44;102724.38;;;12.56;65.09
64158;BME280;50449;51.528;5.076;2022-11-11T03:42:09;102723.53;;;12.55;64.98
64158;BME280;50449;51.528;5.076;2022-11-11T03:44:35;102724.38;;;12.56;64.80
64158;BME280;50449;51.528;5.076;2022-11-11T03:47:00;102723.53;;;12.55;64.98
64158;BME280;50449;51.528;5.076;2022-11-11T03:49:25;102727.91;;;12.56;64.85
64158;BME280;50449;51.528;5.076;2022-11-11T03:51:51;102725.44;;;12.55;64.96
64158;BME280;50449;51.528;5.076;2022-11-11T03:54:16;102709.16;;;12.55;65.08
64158;BME280;50449;51.528;5.076;2022-11-11T03:56:41;102730.84;;;12.55;64.87
64158;BME280;50449;51.528;5.076;2022-11-11T03:59:07;102730.00;;;12.54;65.08
64158;BME280;50449;51.528;5.076;2022-11-11T04:01:32;102726.44;;;12.54;64.78
64158;BME280;50449;51.528;5.076;2022-11-11T04:04:16;102727.50;;;12.53;64.83
64158;BME280;50449;51.528;5.076;2022-11-11T04:07:00;102730.22;;;12.53;64.78
64158;BME280;50449;51.528;5.076;2022-11-11T04:09:44;102745.66;;;12.52;64.97
64158;BME280;50449;51.528;5.076;2022-11-11T04:12:34;102742.09;;;12.52;64.99
64158;BME280;50449;51.528;5.076;2022-11-11T04:15:20;102745.03;;;12.50;64.81
64158;BME280;50449;51.528;5.076;2022-11-11T04:18:04;102748.56;;;12.51;64.93
64158;BME280;50449;51.528;5.076;2022-11-11T04:20:29;102748.56;;;12.51;64.99
64158;BME280;50449;51.528;5.076;2022-11-11T04:23:13;102757.75;;;12.50;65.00
64158;BME280;50449;51.528;5.076;2022-11-11T04:25:39;102749.59;;;12.50;64.93
64158;BME280;50449;51.528;5.076;2022-11-11T04:28:13;102754.16;;;12.49;64.88
64158;BME280;50449;51.528;5.076;2022-11-11T04:30:57;102760.44;;;12.50;64.98
64158;BME280;50449;51.528;5.076;2022-11-11T04:33:22;102754.16;;;12.49;65.08
64158;BME280;50449;51.528;5.076;2022-11-11T04:35:49;102756.88;;;12.49;64.93
64158;BME280;50449;51.528;5.076;2022-11-11T04:38:14;102762.31;;;12.49;64.87
64158;BME280;50449;51.528;5.076;2022-11-11T04:40:58;102759.81;;;12.48;64.95
64158;BME280;50449;51.528;5.076;2022-11-11T04:43:30;102759.81;;;12.48;64.92
64158;BME280;50449;51.528;5.076;2022-11-11T04:45:59;102754.59;;;12.46;64.85
64158;BME280;50449;51.528;5.076;2022-11-11T04:48:25;102750.84;;;12.47;65.02
64158;BME280;50449;51.528;5.076;2022-11-11T04:50:51;102750.84;;;12.47;65.16
64158;BME280;50449;51.528;5.076;2022-11-11T04:53:16;102748.16;;;12.47;64.93
64158;BME280;50449;51.528;5.076;2022-11-11T04:55:43;102750.84;;;12.47;64.80
64158;BME280;50449;51.528;5.076;2022-11-11T04:58:29;102743.75;;;12.46;64.60
64158;BME280;50449;51.528;5.076;2022-11-11T05:00:55;102749.16;;;12.46;64.96
64158;BME280;50449;51.528;5.076;2022-11-11T05:03:20;102749.41;;;12.45;65.01
64158;BME280;50449;51.528;5.076;2022-11-11T05:05:54;102752.72;;;12.47;64.85
64158;BME280;50449;51.528;5.076;2022-11-11T05:08:40;102751.06;;;12.46;64.95
64158;BME280;50449;51.528;5.076;2022-11-11T05:11:32;102745.63;;;12.46;64.88
64158;BME280;50449;51.528;5.076;2022-11-11T05:14:00;102751.25;;;12.44;64.88
64158;BME280;50449;51.528;5.076;2022-11-11T05:16:46;102757.53;;;12.45;65.00
64158;BME280;50449;51.528;5.076;2022-11-11T05:19:31;102758.53;;;12.44;64.75
64158;BME280;50449;51.528;5.076;2022-11-11T05:24:47;102761.25;;;12.44;64.80
64158;BME280;50449;51.528;5.076;2022-11-11T05:27:31;102755.19;;;12.42;65.05
64158;BME280;50449;51.528;5.076;2022-11-11T05:29:56;102750.59;;;12.42;64.91
64158;BME280;50449;51.528;5.076;2022-11-11T05:32:23;102758.75;;;12.42;64.90
64158;BME280;50449;51.528;5.076;2022-11-11T05:34:48;102757.09;;;12.41;65.06
64158;BME280;50449;51.528;5.076;2022-11-11T05:37:15;102759.78;;;12.41;64.83
64158;BME280;50449;51.528;5.076;2022-11-11T05:39:40;102770.63;;;12.41;65.06
64158;BME280;50449;51.528;5.076;2022-11-11T05:42:06;102761.69;;;12.41;64.70
64158;BME280;50449;51.528;5.076;2022-11-11T05:44:32;102765.22;;;12.41;64.98
64158;BME280;50449;51.528;5.076;2022-11-11T05:46:57;102764.38;;;12.41;64.88
64158;BME280;50449;51.528;5.076;2022-11-11T05:49:23;102761.69;;;12.41;65.00
64158;BME280;50449;51.528;5.076;2022-11-11T05:51:49;102762.50;;;12.41;64.95
64158;BME280;50449;51.528;5.076;2022-11-11T05:54:16;102762.69;;;12.40;64.97
64158;BME280;50449;51.528;5.076;2022-11-11T05:56:41;102756.25;;;12.41;64.70
64158;BME280;50449;51.528;5.076;2022-11-11T05:59:08;102761.69;;;12.41;65.03
64158;BME280;50449;51.528;5.076;2022-11-11T06:01:34;102759.16;;;12.39;64.82
64158;BME280;50449;51.528;5.076;2022-11-11T06:04:00;102760.00;;;12.40;64.80
64158;BME280;50449;51.528;5.076;2022-11-11T06:06:25;102756.44;;;12.39;64.84
64158;BME280;50449;51.528;5.076;2022-11-11T06:08:51;102758.34;;;12.39;64.64
64158;BME280;50449;51.528;5.076;2022-11-11T06:11:16;102770.00;;;12.39;64.70
64158;BME280;50449;51.528;5.076;2022-11-11T06:13:42;102765.63;;;12.38;64.85
64158;BME280;50449;51.528;5.076;2022-11-11T06:16:07;102765.63;;;12.38;64.70
64158;BME280;50449;51.528;5.076;2022-11-11T06:18:33;102763.13;;;12.37;64.92
64158;BME280;50449;51.528;5.076;2022-11-11T06:20:59;102763.13;;;12.37;64.79
64158;BME280;50449;51.528;5.076;2022-11-11T06:23:26;102762.28;;;12.36;64.68
64158;BME280;50449;51.528;5.076;2022-11-11T06:25:52;102762.28;;;12.36;64.74
64158;BME280;50449;51.528;5.076;2022-11-11T06:28:36;102763.34;;;12.35;64.89
64158;BME280;50449;51.528;5.076;2022-11-11T06:31:02;102767.06;;;12.34;64.86
64158;BME280;50449;51.528;5.076;2022-11-11T06:33:27;102774.19;;;12.35;64.90
64158;BME280;50449;51.528;5.076;2022-11-11T06:35:53;102777.91;;;12.34;64.70
64158;BME280;50449;51.528;5.076;2022-11-11T06:38:19;102770.84;;;12.33;64.76
64158;BME280;50449;51.528;5.076;2022-11-11T06:40:45;102776.25;;;12.33;64.85
64158;BME280;50449;51.528;5.076;2022-11-11T06:43:10;102780.84;;;12.32;64.75
64158;BME280;50449;51.528;5.076;2022-11-11T06:45:35;102783.75;;;12.31;64.63
64158;BME280;50449;51.528;5.076;2022-11-11T06:48:02;102779.97;;;12.32;64.72
64158;BME280;50449;51.528;5.076;2022-11-11T06:50:27;102781.88;;;12.31;64.40
64158;BME280;50449;51.528;5.076;2022-11-11T06:52:54;102782.09;;;12.30;64.91
64158;BME280;50449;51.528;5.076;2022-11-11T06:55:19;102787.50;;;12.30;64.81
64158;BME280;50449;51.528;5.076;2022-11-11T06:57:45;102786.66;;;12.29;64.76
64158;BME280;50449;51.528;5.076;2022-11-11T07:00:11;102786.66;;;12.29;64.96
64158;BME280;50449;51.528;5.076;2022-11-11T07:02:36;102771.44;;;12.28;64.72
64158;BME280;50449;51.528;5.076;2022-11-11T07:05:02;102782.47;;;12.27;64.81
64158;BME280;50449;51.528;5.076;2022-11-11T07:07:28;102776.22;;;12.26;64.94
64158;BME280;50449;51.528;5.076;2022-11-11T07:09:53;102775.41;;;12.26;64.93
64158;BME280;50449;51.528;5.076;2022-11-11T07:12:22;102786.22;;;12.26;64.86
64158;BME280;50449;51.528;5.076;2022-11-11T07:14:48;102788.13;;;12.25;64.85
64158;BME280;50449;51.528;5.076;2022-11-11T07:17:13;102782.88;;;12.24;64.65
64158;BME280;50449;51.528;5.076;2022-11-11T07:19:38;102792.06;;;12.23;64.63
64158;BME280;50449;51.528;5.076;2022-11-11T07:22:04;102794.78;;;12.23;64.89
64158;BME280;50449;51.528;5.076;2022-11-11T07:24:29;102799.38;;;12.22;64.74
64158;BME280;50449;51.528;5.076;2022-11-11T07:26:55;102796.66;;;12.22;64.90
64158;BME280;50449;51.528;5.076;2022-11-11T07:29:20;102809.34;;;12.22;64.78
64158;BME280;50449;51.528;5.076;2022-11-11T07:31:46;102800.38;;;12.21;64.66
64158;BME280;50449;51.528;5.076;2022-11-11T07:34:11;102804.16;;;12.20;64.97
64158;BME280;50449;51.528;5.076;2022-11-11T07:36:37;102809.56;;;12.20;64.68
64158;BME280;50449;51.528;5.076;2022-11-11T07:39:02;102811.44;;;12.20;64.74
64158;BME280;50449;51.528;5.076;2022-11-11T07:41:27;102819.56;;;12.20;64.89
64158;BME280;50449;51.528;5.076;2022-11-11T07:43:53;102826.00;;;12.19;64.56
64158;BME280;50449;51.528;5.076;2022-11-11T07:46:18;102827.91;;;12.18;64.92
64158;BME280;50449;51.528;5.076;2022-11-11T07:48:43;102838.72;;;12.18;64.55
64158;BME280;50449;51.528;5.076;2022-11-11T07:51:09;102845.81;;;12.19;64.84
64158;BME280;50449;51.528;5.076;2022-11-11T07:53:34;102851.44;;;12.18;64.80
64158;BME280;50449;51.528;5.076;2022-11-11T07:56:00;102847.91;;;12.17;64.85
64158;BME280;50449;51.528;5.076;2022-11-11T07:58:25;102852.47;;;12.17;64.67
64158;BME280;50449;51.528;5.076;2022-11-11T08:00:50;102856.22;;;12.16;64.72
64158;BME280;50449;51.528;5.076;2022-11-11T08:03:16;102861.66;;;12.16;64.85
64158;BME280;50449;51.528;5.076;2022-11-11T08:05:41;102877.91;;;12.16;64.71
64158;BME280;50449;51.528;5.076;2022-11-11T08:08:08;102873.53;;;12.15;64.83
64158;BME280;50449;51.528;5.076;2022-11-11T08:10:35;102876.25;;;12.15;64.81
64158;BME280;50449;51.528;5.076;2022-11-11T08:13:00;102869.97;;;12.14;64.66
64158;BME280;50449;51.528;5.076;2022-11-11T08:15:45;102879.97;;;12.13;64.57
64158;BME280;50449;51.528;5.076;2022-11-11T08:18:10;102881.19;;;12.11;64.47
64158;BME280;50449;51.528;5.076;2022-11-11T08:20:36;102888.31;;;12.12;64.57
64158;BME280;50449;51.528;5.076;2022-11-11T08:23:02;102888.31;;;12.12;64.79
64158;BME280;50449;51.528;5.076;2022-11-11T08:25:36;102892.88;;;12.11;64.86
64158;BME280;50449;51.528;5.076;2022-11-11T08:28:03;102891.22;;;12.10;64.91
64158;BME280;50449;51.528;5.076;2022-11-11T08:30:29;102893.09;;;12.10;64.77
64158;BME280;50449;51.528;5.076;2022-11-11T08:33:03;102888.69;;;12.09;64.79
64158;BME280;50449;51.528;5.076;2022-11-11T08:35:30;102897.88;;;12.08;64.70
64158;BME280;50449;51.528;5.076;2022-11-11T08:38:00;102893.28;;;12.08;64.92
64158;BME280;50449;51.528;5.076;2022-11-11T08:40:26;102906.00;;;12.08;64.47
64158;BME280;50449;51.528;5.076;2022-11-11T08:42:55;102900.75;;;12.06;64.74
64158;BME280;50449;51.528;5.076;2022-11-11T08:45:22;102902.44;;;12.07;64.63
64158;BME280;50449;51.528;5.076;2022-11-11T08:47:47;102909.94;;;12.05;64.49
64158;BME280;50449;51.528;5.076;2022-11-11T08:50:12;102913.47;;;12.06;64.69
64158;BME280;50449;51.528;5.076;2022-11-11T08:52:44;102909.94;;;12.05;64.67
64158;BME280;50449;51.528;5.076;2022-11-11T08:55:10;102914.53;;;12.05;64.80
64158;BME280;50449;51.528;5.076;2022-11-11T08:57:35;102910.13;;;12.04;64.93
64158;BME280;50449;51.528;5.076;2022-11-11T09:00:03;102919.09;;;12.04;64.55
64158;BME280;50449;51.528;5.076;2022-11-11T09:02:28;102923.66;;;12.04;64.47
64158;BME280;50449;51.528;5.076;2022-11-11T09:04:54;102929.09;;;12.04;64.74
64158;BME280;50449;51.528;5.076;2022-11-11T09:07:19;102920.13;;;12.03;64.51
64158;BME280;50449;51.528;5.076;2022-11-11T09:09:45;102914.91;;;12.02;64.47
64158;BME280;50449;51.528;5.076;2022-11-11T09:12:10;102917.59;;;12.02;64.62
64158;BME280;50449;51.528;5.076;2022-11-11T09:14:35;102916.59;;;12.03;64.44
64158;BME280;50449;51.528;5.076;2022-11-11T09:17:01;102909.47;;;12.02;64.56
64158;BME280;50449;51.528;5.076;2022-11-11T09:19:26;102925.53;;;12.03;64.72
64158;BME280;50449;51.528;5.076;2022-11-11T09:21:52;102922.00;;;12.03;64.59
64158;BME280;50449;51.528;5.076;2022-11-11T09:24:17;102920.31;;;12.02;64.51
64158;BME280;50449;51.528;5.076;2022-11-11T09:26:43;102916.78;;;12.01;64.71
64158;BME280;50449;51.528;5.076;2022-11-11T09:29:08;102915.75;;;12.02;64.57
64158;BME280;50449;51.528;5.076;2022-11-11T09:31:33;102915.94;;;12.01;64.72
64158;BME280;50449;51.528;5.076;2022-11-11T09:33:59;102917.59;;;12.02;64.67
64158;BME280;50449;51.528;5.076;2022-11-11T09:36:25;102916.78;;;12.01;64.70
64158;BME280;50449;51.528;5.076;2022-11-11T09:38:50;102914.06;;;12.01;64.68
64158;BME280;50449;51.528;5.076;2022-11-11T09:44:32;102922.41;;;12.00;64.82
64158;BME280;50449;51.528;5.076;2022-11-11T09:47:13;102922.41;;;12.00;64.41
64158;BME280;50449;51.528;5.076;2022-11-11T09:49:53;102925.94;;;12.00;64.64
64158;BME280;50449;51.528;5.076;2022-11-11T09:55:21;102925.94;;;12.00;64.64
64158;BME280;50449;51.528;5.076;2022-11-11T09:57:55;102934.06;;;12.00;64.88
64158;BME280;50449;51.528;5.076;2022-11-11T10:00:28;102931.38;;;12.00;64.88
64158;BME280;50449;51.528;5.076;2022-11-11T10:03:20;102936.56;;;12.02;64.98
64158;BME280;50449;51.528;5.076;2022-11-11T10:06:00;102939.50;;;12.00;64.87
64158;BME280;50449;51.528;5.076;2022-11-11T10:08:36;102940.31;;;12.01;64.56
64158;BME280;50449;51.528;5.076;2022-11-11T10:11:11;102943.88;;;12.01;64.77
64158;BME280;50449;51.528;5.076;2022-11-11T10:13:39;102946.56;;;12.01;64.60
64158;BME280;50449;51.528;5.076;2022-11-11T10:21:41;102947.41;;;12.02;64.73
64158;BME280;50449;51.528;5.076;2022-11-11T10:24:15;102951.16;;;12.01;64.58
64158;BME280;50449;51.528;5.076;2022-11-11T10:26:44;102949.28;;;12.01;64.67
64158;BME280;50449;51.528;5.076;2022-11-11T10:29:21;102948.28;;;12.02;64.79
64158;BME280;50449;51.528;5.076;2022-11-11T10:32:08;102958.25;;;12.02;64.76
64158;BME280;50449;51.528;5.076;2022-11-11T10:34:35;102957.22;;;12.03;64.92
64158;BME280;50449;51.528;5.076;2022-11-11T10:37:01;102957.00;;;12.04;64.46
64158;BME280;50449;51.528;5.076;2022-11-11T10:42:20;102947.03;;;12.05;64.68
64158;BME280;50449;51.528;5.076;2022-11-11T10:44:46;102943.28;;;12.06;64.79
64158;BME280;50449;51.528;5.076;2022-11-11T10:47:42;102940.38;;;12.07;64.67
64158;BME280;50449;51.528;5.076;2022-11-11T10:50:19;102940.38;;;12.07;64.60
64158;BME280;50449;51.528;5.076;2022-11-11T10:55:19;102940.16;;;12.09;64.50
64158;BME280;50449;51.528;5.076;2022-11-11T10:58:05;102938.94;;;12.11;64.38
64158;BME280;50449;51.528;5.076;2022-11-11T11:00:34;102946.22;;;12.11;64.48
64158;BME280;50449;51.528;5.076;2022-11-11T11:03:13;102950.63;;;12.12;64.58
64158;BME280;50449;51.528;5.076;2022-11-11T11:08:25;102935.38;;;12.11;64.33
64158;BME280;50449;51.528;5.076;2022-11-11T11:10:57;102930.81;;;12.11;64.88
64158;BME280;50449;51.528;5.076;2022-11-11T11:13:40;102933.31;;;12.13;64.52
64158;BME280;50449;51.528;5.076;2022-11-11T11:16:41;102924.38;;;12.12;64.58
64158;BME280;50449;51.528;5.076;2022-11-11T11:24:30;102920.59;;;12.13;64.75
64158;BME280;50449;51.528;5.076;2022-11-11T11:26:58;102924.16;;;12.14;64.59
64158;BME280;50449;51.528;5.076;2022-11-11T11:31:54;102920.41;;;12.15;64.85
64158;BME280;50449;51.528;5.076;2022-11-11T11:34:20;102925.00;;;12.15;64.91
64158;BME280;50449;51.528;5.076;2022-11-11T11:37:01;102920.19;;;12.17;64.78
64158;BME280;50449;51.528;5.076;2022-11-11T11:39:37;102922.06;;;12.16;64.77
64158;BME280;50449;51.528;5.076;2022-11-11T11:42:04;102923.78;;;12.17;64.63
64158;BME280;50449;51.528;5.076;2022-11-11T11:44:31;102915.63;;;12.17;64.71
64158;BME280;50449;51.528;5.076;2022-11-11T11:55:43;102916.25;;;12.19;64.78
64158;BME280;50449;51.528;5.076;2022-11-11T11:59:08;102905.22;;;12.21;64.92
64158;BME280;50449;51.528;5.076;2022-11-11T12:01:26;102912.31;;;12.22;64.83
64158;BME280;50449;51.528;5.076;2022-11-11T12:15:01;102913.59;;;12.26;64.92
64158;BME280;50449;51.528;5.076;2022-11-11T12:17:43;102911.53;;;12.28;64.82
64158;BME280;50449;51.528;5.076;2022-11-11T12:21:13;102910.69;;;12.27;64.56
64158;BME280;50449;51.528;5.076;2022-11-11T12:26:36;102895.03;;;12.29;64.72
64158;BME280;50449;51.528;5.076;2022-11-11T12:29:47;102881.94;;;12.33;64.78
64158;BME280;50449;51.528;5.076;2022-11-11T12:37:25;102890.50;;;12.37;64.69
64158;BME280;50449;51.528;5.076;2022-11-11T12:40:07;102896.75;;;12.37;64.71
64158;BME280;50449;51.528;5.076;2022-11-11T12:50:35;102889.88;;;12.41;64.58
64158;BME280;50449;51.528;5.076;2022-11-11T12:53:38;102892.59;;;12.41;64.77
64158;BME280;50449;51.528;5.076;2022-11-11T13:01:50;102888.47;;;12.45;64.56
64158;BME280;50449;51.528;5.076;2022-11-11T13:04:37;102893.66;;;12.47;64.86
64158;BME280;50449;51.528;5.076;2022-11-11T13:15:41;102890.16;;;12.53;64.55
64158;BME280;50449;51.528;5.076;2022-11-11T13:18:13;102880.56;;;12.57;64.55
64158;BME280;50449;51.528;5.076;2022-11-11T13:20:55;102878.28;;;12.61;64.44
64158;BME280;50449;51.528;5.076;2022-11-11T13:23:21;102880.78;;;12.62;64.66
64158;BME280;50449;51.528;5.076;2022-11-11T13:25:48;102883.31;;;12.64;64.63
64158;BME280;50449;51.528;5.076;2022-11-11T13:28:36;102876.81;;;12.65;64.78
64158;BME280;50449;51.528;5.076;2022-11-11T13:33:45;102883.72;;;12.67;64.67
64158;BME280;50449;51.528;5.076;2022-11-11T13:36:15;102885.41;;;12.68;64.69
64158;BME280;50449;51.528;5.076;2022-11-11T13:39:01;102878.09;;;12.69;64.64
64158;BME280;50449;51.528;5.076;2022-11-11T13:41:30;102875.38;;;12.69;64.50
64158;BME280;50449;51.528;5.076;2022-11-11T13:43:59;102881.44;;;12.71;64.48
64158;BME280;50449;51.528;5.076;2022-11-11T13:46:39;102876.03;;;12.71;64.63
64158;BME280;50449;51.528;5.076;2022-11-11T13:49:18;102872.69;;;12.75;64.55
64158;BME280;50449;51.528;5.076;2022-11-11T13:51:45;102871.69;;;12.83;64.23
64158;BME280;50449;51.528;5.076;2022-11-11T13:54:30;102879.81;;;12.90;64.21
64158;BME280;50449;51.528;5.076;2022-11-11T13:59:40;102876.06;;;12.97;64.30
64158;BME280;50449;51.528;5.076;2022-11-11T14:12:52;102869.00;;;13.16;63.95
64158;BME280;50449;51.528;5.076;2022-11-11T14:15:34;102868.38;;;13.21;64.17
64158;BME280;50449;51.528;5.076;2022-11-11T14:24:50;102866.44;;;12.82;64.21
64158;BME280;50449;51.528;5.076;2022-11-11T14:27:19;102868.75;;;12.91;64.19
64158;BME280;50449;51.528;5.076;2022-11-11T14:29:54;102865.63;;;13.08;64.27
64158;BME280;50449;51.528;5.076;2022-11-11T14:32:53;102863.97;;;13.20;64.24
64158;BME280;50449;51.528;5.076;2022-11-11T14:35:34;102855.66;;;13.41;63.66
64158;BME280;50449;51.528;5.076;2022-11-11T14:38:10;102857.53;;;13.54;63.75
64158;BME280;50449;51.528;5.076;2022-11-11T14:40:39;102849.16;;;13.62;63.46
64158;BME280;50449;51.528;5.076;2022-11-11T14:43:39;102857.31;;;13.69;63.28
64158;BME280;50449;51.528;5.076;2022-11-11T14:46:09;102857.31;;;13.76;63.18
64158;BME280;50449;51.528;5.076;2022-11-11T14:54:05;102846.41;;;13.89;63.06
64158;BME280;50449;51.528;5.076;2022-11-11T14:56:31;102851.41;;;13.92;63.14
64158;BME280;50449;51.528;5.076;2022-11-11T14:59:06;102848.47;;;13.94;62.90
64158;BME280;50449;51.528;5.076;2022-11-11T15:01:32;102854.09;;;13.99;62.86
64158;BME280;50449;51.528;5.076;2022-11-11T15:04:01;102859.09;;;14.02;62.59
64158;BME280;50449;51.528;5.076;2022-11-11T15:07:03;102858.03;;;14.03;62.71
64158;BME280;50449;51.528;5.076;2022-11-11T15:09:55;102859.72;;;14.04;62.94
64158;BME280;50449;51.528;5.076;2022-11-11T15:18:04;102861.38;;;14.05;62.62